createdAt,value
2022-10-01T00:08:52.003Z,7.53
2022-10-01T00:18:57.898Z,7.50
2022-10-01T00:29:05.444Z,7.49
2022-10-01T00:39:11.518Z,7.69
2022-10-01T00:49:21.639Z,7.74
2022-10-01T00:59:27.503Z,7.81
2022-10-01T01:09:34.761Z,7.83
2022-10-01T01:20:00.287Z,7.90
2022-10-01T01:30:09.385Z,8.21
2022-10-01T01:40:16.078Z,7.87
2022-10-01T01:50:21.246Z,7.88
2022-10-01T02:00:26.802Z,7.97
2022-10-01T02:10:50.185Z,8.02
2022-10-01T02:21:05.543Z,8.08
2022-10-01T02:31:13.060Z,8.14
2022-10-01T02:41:24.130Z,8.32
2022-10-01T02:51:39.469Z,8.15
2022-10-01T03:01:44.780Z,8.23
2022-10-01T03:11:49.925Z,8.30
2022-10-01T03:21:53.814Z,8.43
2022-10-01T03:31:58.845Z,8.61
2022-10-01T03:42:02.514Z,8.62
2022-10-01T03:52:07.691Z,8.72
2022-10-01T04:02:11.432Z,8.84
2022-10-01T04:12:16.484Z,9.67
2022-10-01T04:22:20.118Z,10.38
2022-10-01T04:32:26.193Z,10.51
2022-10-01T04:42:29.822Z,10.58
2022-10-01T04:52:34.862Z,10.73
2022-10-01T05:02:38.629Z,10.59
2022-10-01T05:12:44.222Z,10.57
2022-10-01T05:22:48.908Z,10.61
2022-10-01T05:32:58.964Z,10.57
2022-10-01T05:43:04.228Z,10.57
2022-10-01T05:53:11.319Z,10.47
2022-10-01T06:03:15.189Z,10.65
2022-10-01T06:13:20.262Z,10.66
2022-10-01T06:23:31.006Z,10.61
2022-10-01T06:33:36.658Z,10.79
2022-10-01T06:43:40.423Z,10.92
2022-10-01T06:53:45.368Z,10.87
2022-10-01T07:03:48.947Z,11.00
2022-10-01T07:13:54.798Z,11.03
2022-10-01T07:23:58.546Z,11.18
2022-10-01T07:34:06.633Z,11.17
2022-10-01T07:44:11.711Z,11.05
2022-10-01T07:54:21.682Z,11.23
2022-10-01T08:04:45.832Z,11.24
2022-10-01T08:14:50.936Z,11.08
2022-10-01T08:24:54.601Z,11.10
2022-10-01T08:35:01.216Z,11.15
2022-10-01T08:45:12.634Z,11.27
2022-10-01T08:55:21.803Z,11.28
2022-10-01T09:05:32.608Z,11.39
2022-10-01T09:15:47.390Z,11.50
2022-10-01T09:25:54.088Z,11.72
2022-10-01T09:36:09.935Z,11.72
2022-10-01T09:46:17.594Z,11.72
2022-10-01T09:56:32.173Z,11.87
2022-10-01T10:06:36.207Z,12.52
2022-10-01T10:16:47.264Z,13.00
2022-10-01T10:26:56.508Z,13.29
2022-10-01T10:37:06.115Z,13.08
2022-10-01T10:47:13.578Z,13.12
2022-10-01T10:57:22.274Z,12.78
2022-10-01T11:07:27.823Z,12.67
2022-10-01T11:18:04.173Z,13.56
2022-10-01T11:28:24.108Z,13.55
2022-10-01T11:38:45.575Z,13.68
2022-10-01T11:48:53.321Z,13.39
2022-10-01T11:59:05.353Z,13.51
2022-10-01T12:09:18.812Z,14.02
2022-10-01T12:19:28.231Z,14.39
2022-10-01T12:29:43.227Z,14.45
2022-10-01T12:40:11.106Z,15.33
2022-10-01T12:50:36.269Z,15.97
2022-10-01T13:00:56.179Z,15.97
2022-10-01T13:11:10.552Z,15.91
2022-10-01T13:21:23.646Z,15.57
2022-10-01T13:31:38.458Z,16.09
2022-10-01T13:41:48.010Z,16.38
2022-10-01T13:51:54.124Z,15.99
2022-10-01T14:01:59.208Z,16.96
2022-10-01T14:12:24.166Z,17.54
2022-10-01T14:22:56.397Z,17.13
2022-10-01T14:33:39.339Z,16.22
2022-10-01T14:43:46.063Z,16.70
2022-10-01T14:53:49.953Z,16.83
2022-10-01T15:03:58.472Z,16.96
2022-10-01T15:14:06.430Z,16.76
2022-10-01T15:24:21.666Z,16.64
2022-10-01T15:34:27.441Z,16.29
2022-10-01T15:44:50.381Z,16.22
2022-10-01T15:55:00.535Z,16.18
2022-10-01T16:05:08.844Z,16.20
2022-10-01T16:15:26.992Z,15.95
2022-10-01T16:25:33.646Z,15.69
2022-10-01T16:35:44.394Z,15.61
2022-10-01T16:45:49.829Z,15.31
2022-10-01T16:55:55.874Z,15.27
2022-10-01T17:06:00.835Z,15.25
2022-10-01T17:16:07.729Z,15.19
2022-10-01T17:26:18.341Z,15.01
2022-10-01T17:36:23.297Z,14.78
2022-10-01T17:46:28.341Z,14.64
2022-10-01T17:56:33.098Z,14.56
2022-10-01T18:06:38.346Z,14.45
2022-10-01T18:16:42.371Z,14.55
2022-10-01T18:26:49.750Z,14.35
2022-10-01T18:37:00.018Z,14.33
2022-10-01T18:47:20.005Z,14.19
2022-10-01T18:57:43.135Z,13.97
2022-10-01T19:08:01.282Z,13.77
2022-10-01T19:18:33.887Z,13.73
2022-10-01T19:28:57.653Z,13.60
2022-10-01T19:39:09.175Z,13.48
2022-10-01T19:49:21.766Z,13.54
2022-10-01T19:59:25.466Z,13.56
2022-10-01T20:09:37.507Z,13.55
2022-10-01T20:19:48.015Z,13.59
2022-10-01T20:30:01.594Z,13.33
2022-10-01T20:40:14.730Z,13.29
2022-10-01T20:50:27.383Z,13.16
2022-10-01T21:00:31.464Z,12.85
2022-10-01T21:10:42.459Z,12.62
2022-10-01T21:20:59.338Z,12.49
2022-10-01T21:31:21.344Z,12.51
2022-10-01T21:41:53.672Z,12.66
2022-10-01T21:52:12.161Z,12.83
2022-10-01T22:02:29.751Z,13.06
2022-10-01T22:12:39.755Z,13.11
2022-10-01T22:22:44.491Z,12.82
2022-10-01T22:32:57.461Z,12.74
2022-10-01T22:43:06.468Z,12.61
2022-10-01T22:53:37.553Z,12.48
2022-10-01T23:04:04.249Z,12.79
2022-10-01T23:14:19.800Z,12.96
2022-10-01T23:24:39.523Z,13.13
2022-10-01T23:34:53.427Z,13.13
2022-10-01T23:45:07.591Z,13.07
2022-10-01T23:55:33.221Z,13.00
